Otisfield, Maine
Current Conditions -  °F | °C
As of 7:55 AM on Friday 19 Dec 2014 (Local Time) from KLEW Reporting Station
Overcast Overcast  
Wind Chill: 25°   Ceiling: 5500
Heat Index: 30°   Visibility: 10mi
Dew Point: 19°   Wind: 5mph
Humidity: 64%   Direction: 330°NNW
Pressure: 29.88"   Gusts: NA
Location:  44.0966°N, 70.5371°W
Report Text: KLEW 191255Z AUTO 33004KT 10SM OVC055 M01/M07 A2988 RMK AO1
Loading
Personal Weather Stations






























Interactive Weather Map New forecast layout! Learn more

10-Day Weather Forecast

Advertisements
Track Severe Weather on mobile